sensor_id;sensor_type;location;lat;lon;timestamp;pressure;altitude;pressure_sealevel;temperature;humidity
25526;BME280;13424;48.424;11.258;2022-10-31T00:00:13;96074.81;;;15.17;83.16
25526;BME280;13424;48.424;11.258;2022-10-31T00:02:41;96062.94;;;15.13;82.42
25526;BME280;13424;48.424;11.258;2022-10-31T00:05:07;96061.41;;;14.85;81.74
25526;BME280;13424;48.424;11.258;2022-10-31T00:07:33;96068.72;;;14.95;83.21
25526;BME280;13424;48.424;11.258;2022-10-31T00:09:59;96067.78;;;15.11;83.50
25526;BME280;13424;48.424;11.258;2022-10-31T00:12:26;96068.13;;;14.88;84.51
25526;BME280;13424;48.424;11.258;2022-10-31T00:14:52;96065.66;;;15.13;83.97
25526;BME280;13424;48.424;11.258;2022-10-31T00:17:18;96075.28;;;15.09;84.58
25526;BME280;13424;48.424;11.258;2022-10-31T00:19:43;96075.16;;;14.94;83.77
25526;BME280;13424;48.424;11.258;2022-10-31T00:22:10;96077.03;;;14.93;82.15
25526;BME280;13424;48.424;11.258;2022-10-31T00:24:36;96078.09;;;14.65;81.31
25526;BME280;13424;48.424;11.258;2022-10-31T00:27:02;96084.28;;;14.44;81.27
25526;BME280;13424;48.424;11.258;2022-10-31T00:29:27;96082.22;;;14.29;81.67
25526;BME280;13424;48.424;11.258;2022-10-31T00:31:53;96076.38;;;14.32;81.70
25526;BME280;13424;48.424;11.258;2022-10-31T00:34:19;96067.56;;;14.37;82.37
25526;BME280;13424;48.424;11.258;2022-10-31T00:36:45;96082.03;;;14.36;82.61
25526;BME280;13424;48.424;11.258;2022-10-31T00:39:12;96080.88;;;14.48;82.13
25526;BME280;13424;48.424;11.258;2022-10-31T00:41:38;96078.50;;;14.30;84.12
25526;BME280;13424;48.424;11.258;2022-10-31T00:44:10;96081.78;;;14.59;81.64
25526;BME280;13424;48.424;11.258;2022-10-31T00:46:36;96081.19;;;14.52;80.45
25526;BME280;13424;48.424;11.258;2022-10-31T00:49:03;96084.19;;;14.34;80.34
25526;BME280;13424;48.424;11.258;2022-10-31T00:51:29;96087.22;;;14.20;80.98
25526;BME280;13424;48.424;11.258;2022-10-31T00:53:55;96086.81;;;14.07;82.17
25526;BME280;13424;48.424;11.258;2022-10-31T00:56:21;96087.69;;;13.90;83.75
25526;BME280;13424;48.424;11.258;2022-10-31T00:58:47;96084.94;;;14.07;84.19
25526;BME280;13424;48.424;11.258;2022-10-31T01:01:13;96085.69;;;14.24;81.78
25526;BME280;13424;48.424;11.258;2022-10-31T01:03:38;96075.44;;;14.21;81.28
25526;BME280;13424;48.424;11.258;2022-10-31T01:06:11;96080.81;;;14.21;81.79
25526;BME280;13424;48.424;11.258;2022-10-31T01:08:39;96078.44;;;14.03;81.84
25526;BME280;13424;48.424;11.258;2022-10-31T01:11:18;96069.84;;;14.01;80.64
25526;BME280;13424;48.424;11.258;2022-10-31T01:13:45;96073.22;;;13.91;81.57
25526;BME280;13424;48.424;11.258;2022-10-31T01:16:17;96073.72;;;14.10;81.94
25526;BME280;13424;48.424;11.258;2022-10-31T01:18:43;96065.28;;;14.02;83.08
25526;BME280;13424;48.424;11.258;2022-10-31T01:21:13;96070.84;;;14.17;81.79
25526;BME280;13424;48.424;11.258;2022-10-31T01:23:39;96069.91;;;14.06;81.53
25526;BME280;13424;48.424;11.258;2022-10-31T01:26:14;96077.00;;;13.95;82.96
25526;BME280;13424;48.424;11.258;2022-10-31T01:28:53;96066.72;;;14.09;81.76
25526;BME280;13424;48.424;11.258;2022-10-31T01:31:22;96069.97;;;14.11;81.48
25526;BME280;13424;48.424;11.258;2022-10-31T01:33:48;96070.03;;;14.16;83.03
25526;BME280;13424;48.424;11.258;2022-10-31T01:36:24;96074.69;;;14.04;83.08
25526;BME280;13424;48.424;11.258;2022-10-31T01:38:53;96074.34;;;14.17;82.70
25526;BME280;13424;48.424;11.258;2022-10-31T01:41:26;96080.00;;;14.21;82.99
25526;BME280;13424;48.424;11.258;2022-10-31T01:44:02;96078.34;;;14.15;82.67
25526;BME280;13424;48.424;11.258;2022-10-31T01:46:38;96080.13;;;14.09;83.23
25526;BME280;13424;48.424;11.258;2022-10-31T01:49:16;96075.56;;;13.88;82.83
25526;BME280;13424;48.424;11.258;2022-10-31T01:54:43;96072.84;;;13.83;82.06
25526;BME280;13424;48.424;11.258;2022-10-31T01:57:12;96075.16;;;13.57;83.48
25526;BME280;13424;48.424;11.258;2022-10-31T01:59:43;96075.66;;;13.54;82.64
25526;BME280;13424;48.424;11.258;2022-10-31T02:02:11;96075.00;;;13.47;83.61
25526;BME280;13424;48.424;11.258;2022-10-31T02:04:37;96072.00;;;13.60;82.69
25526;BME280;13424;48.424;11.258;2022-10-31T02:07:25;96071.50;;;13.63;82.74
25526;BME280;13424;48.424;11.258;2022-10-31T02:09:55;96064.59;;;13.67;82.86
25526;BME280;13424;48.424;11.258;2022-10-31T02:12:22;96071.31;;;13.70;83.17
25526;BME280;13424;48.424;11.258;2022-10-31T02:18:55;96062.09;;;13.61;84.18
25526;BME280;13424;48.424;11.258;2022-10-31T02:21:47;96074.34;;;13.57;86.56
25526;BME280;13424;48.424;11.258;2022-10-31T02:24:32;96075.94;;;13.75;86.75
25526;BME280;13424;48.424;11.258;2022-10-31T02:30:07;96077.50;;;13.71;89.14
25526;BME280;13424;48.424;11.258;2022-10-31T02:33:06;96075.66;;;13.93;87.30
25526;BME280;13424;48.424;11.258;2022-10-31T02:35:53;96079.63;;;13.68;88.29
25526;BME280;13424;48.424;11.258;2022-10-31T02:45:21;96076.19;;;13.73;83.36
25526;BME280;13424;48.424;11.258;2022-10-31T02:47:50;96082.13;;;13.75;83.13
25526;BME280;13424;48.424;11.258;2022-10-31T02:50:23;96078.63;;;13.58;82.43
25526;BME280;13424;48.424;11.258;2022-10-31T02:52:52;96080.94;;;13.49;83.36
25526;BME280;13424;48.424;11.258;2022-10-31T02:58:17;96069.16;;;13.67;83.63
25526;BME280;13424;48.424;11.258;2022-10-31T03:07:40;96069.97;;;13.34;84.91
25526;BME280;13424;48.424;11.258;2022-10-31T03:13:09;96066.72;;;13.49;82.98
25526;BME280;13424;48.424;11.258;2022-10-31T03:15:40;96068.53;;;13.43;83.54
25526;BME280;13424;48.424;11.258;2022-10-31T03:18:26;96069.34;;;13.44;84.53
25526;BME280;13424;48.424;11.258;2022-10-31T03:21:09;96068.88;;;13.30;83.32
25526;BME280;13424;48.424;11.258;2022-10-31T03:23:37;96073.41;;;13.46;84.57
25526;BME280;13424;48.424;11.258;2022-10-31T03:26:06;96070.88;;;13.39;83.34
25526;BME280;13424;48.424;11.258;2022-10-31T03:28:52;96074.94;;;13.42;84.33
25526;BME280;13424;48.424;11.258;2022-10-31T03:31:19;96070.72;;;13.46;82.35
25526;BME280;13424;48.424;11.258;2022-10-31T03:33:48;96068.69;;;13.53;82.56
25526;BME280;13424;48.424;11.258;2022-10-31T03:36:16;96066.56;;;13.55;82.66
25526;BME280;13424;48.424;11.258;2022-10-31T03:38:43;96065.59;;;13.45;83.04
25526;BME280;13424;48.424;11.258;2022-10-31T03:41:17;96060.06;;;13.18;86.23
25526;BME280;13424;48.424;11.258;2022-10-31T03:43:54;96065.59;;;13.45;84.40
25526;BME280;13424;48.424;11.258;2022-10-31T03:46:24;96070.63;;;13.41;82.67
25526;BME280;13424;48.424;11.258;2022-10-31T03:48:53;96068.88;;;13.30;86.57
25526;BME280;13424;48.424;11.258;2022-10-31T03:51:30;96079.09;;;13.33;85.92
25526;BME280;13424;48.424;11.258;2022-10-31T03:54:09;96079.88;;;13.50;84.60
25526;BME280;13424;48.424;11.258;2022-10-31T03:56:45;96076.16;;;13.51;83.30
25526;BME280;13424;48.424;11.258;2022-10-31T03:59:27;96082.00;;;13.48;83.88
25526;BME280;13424;48.424;11.258;2022-10-31T04:02:01;96076.47;;;13.55;83.59
25526;BME280;13424;48.424;11.258;2022-10-31T04:04:29;96070.63;;;13.41;83.94
25526;BME280;13424;48.424;11.258;2022-10-31T04:06:56;96072.09;;;13.32;85.93
25526;BME280;13424;48.424;11.258;2022-10-31T04:09:25;96064.53;;;13.46;85.38
25526;BME280;13424;48.424;11.258;2022-10-31T04:11:53;96068.63;;;13.31;86.22
25526;BME280;13424;48.424;11.258;2022-10-31T04:14:38;96069.78;;;13.35;85.60
25526;BME280;13424;48.424;11.258;2022-10-31T04:17:12;96074.47;;;13.45;84.75
25526;BME280;13424;48.424;11.258;2022-10-31T04:19:40;96066.25;;;13.35;85.59
25526;BME280;13424;48.424;11.258;2022-10-31T04:22:06;96071.81;;;13.28;86.24
25526;BME280;13424;48.424;11.258;2022-10-31T04:24:32;96069.84;;;13.24;86.68
25526;BME280;13424;48.424;11.258;2022-10-31T04:26:58;96067.91;;;13.36;86.66
25526;BME280;13424;48.424;11.258;2022-10-31T04:29:24;96064.47;;;13.07;88.50
25526;BME280;13424;48.424;11.258;2022-10-31T04:31:50;96066.72;;;12.65;90.75
25526;BME280;13424;48.424;11.258;2022-10-31T04:34:16;96058.72;;;12.98;88.82
25526;BME280;13424;48.424;11.258;2022-10-31T04:36:42;96066.66;;;12.93;88.47
25526;BME280;13424;48.424;11.258;2022-10-31T04:39:08;96063.41;;;12.91;88.79
25526;BME280;13424;48.424;11.258;2022-10-31T04:41:42;96062.25;;;12.70;89.20
25526;BME280;13424;48.424;11.258;2022-10-31T04:44:13;96062.84;;;12.89;89.17
25526;BME280;13424;48.424;11.258;2022-10-31T04:46:39;96066.09;;;13.08;87.17
25526;BME280;13424;48.424;11.258;2022-10-31T04:49:09;96069.16;;;13.17;87.38
25526;BME280;13424;48.424;11.258;2022-10-31T04:51:35;96065.41;;;13.18;87.41
25526;BME280;13424;48.424;11.258;2022-10-31T04:54:01;96069.41;;;12.81;88.65
25526;BME280;13424;48.424;11.258;2022-10-31T04:56:27;96068.34;;;12.99;88.33
25526;BME280;13424;48.424;11.258;2022-10-31T04:59:02;96076.50;;;13.21;87.13
25526;BME280;13424;48.424;11.258;2022-10-31T05:01:37;96071.03;;;13.33;86.57
25526;BME280;13424;48.424;11.258;2022-10-31T05:04:04;96066.19;;;13.30;86.52
25526;BME280;13424;48.424;11.258;2022-10-31T05:06:31;96065.63;;;13.28;85.55
25526;BME280;13424;48.424;11.258;2022-10-31T05:08:57;96066.19;;;13.30;85.97
25526;BME280;13424;48.424;11.258;2022-10-31T05:11:27;96070.97;;;13.45;84.13
25526;BME280;13424;48.424;11.258;2022-10-31T05:13:56;96066.41;;;13.45;83.92
25526;BME280;13424;48.424;11.258;2022-10-31T05:16:47;96059.09;;;13.40;83.58
25526;BME280;13424;48.424;11.258;2022-10-31T05:19:31;96058.03;;;13.41;83.91
25526;BME280;13424;48.424;11.258;2022-10-31T05:22:20;96049.72;;;13.21;83.36
25526;BME280;13424;48.424;11.258;2022-10-31T05:24:46;96050.81;;;13.08;84.33
25526;BME280;13424;48.424;11.258;2022-10-31T05:27:12;96044.81;;;13.18;83.51
25526;BME280;13424;48.424;11.258;2022-10-31T05:29:38;96046.63;;;12.96;84.69
25526;BME280;13424;48.424;11.258;2022-10-31T05:32:04;96047.19;;;13.14;82.22
25526;BME280;13424;48.424;11.258;2022-10-31T05:34:59;96045.72;;;12.90;81.98
25526;BME280;13424;48.424;11.258;2022-10-31T05:37:44;96051.47;;;12.82;83.07
25526;BME280;13424;48.424;11.258;2022-10-31T05:40:13;96049.00;;;12.64;83.71
25526;BME280;13424;48.424;11.258;2022-10-31T05:42:42;96050.16;;;12.68;83.40
25526;BME280;13424;48.424;11.258;2022-10-31T05:45:11;96051.88;;;12.74;83.61
25526;BME280;13424;48.424;11.258;2022-10-31T05:48:00;96057.09;;;12.80;82.86
25526;BME280;13424;48.424;11.258;2022-10-31T05:51:01;96050.91;;;12.80;83.80
25526;BME280;13424;48.424;11.258;2022-10-31T05:53:27;96053.66;;;13.02;83.31
25526;BME280;13424;48.424;11.258;2022-10-31T05:55:52;96049.47;;;12.89;84.62
25526;BME280;13424;48.424;11.258;2022-10-31T05:58:20;96046.28;;;12.92;84.65
25526;BME280;13424;48.424;11.258;2022-10-31T06:00:59;96050.66;;;12.98;84.03
25526;BME280;13424;48.424;11.258;2022-10-31T06:03:24;96053.59;;;12.80;85.08
25526;BME280;13424;48.424;11.258;2022-10-31T06:05:57;96054.81;;;12.89;85.18
25526;BME280;13424;48.424;11.258;2022-10-31T06:08:28;96044.03;;;12.55;87.00
25526;BME280;13424;48.424;11.258;2022-10-31T06:10:57;96048.53;;;12.67;87.16
25526;BME280;13424;48.424;11.258;2022-10-31T06:13:42;96053.19;;;12.88;86.21
25526;BME280;13424;48.424;11.258;2022-10-31T06:16:16;96056.34;;;12.85;86.45
25526;BME280;13424;48.424;11.258;2022-10-31T06:18:44;96056.34;;;12.85;86.01
25526;BME280;13424;48.424;11.258;2022-10-31T06:21:11;96056.19;;;13.08;85.81
25526;BME280;13424;48.424;11.258;2022-10-31T06:23:38;96052.94;;;13.06;86.51
25526;BME280;13424;48.424;11.258;2022-10-31T06:26:34;96060.75;;;13.25;85.90
25526;BME280;13424;48.424;11.258;2022-10-31T06:29:02;96059.13;;;13.24;85.57
25526;BME280;13424;48.424;11.258;2022-10-31T06:31:54;96057.38;;;13.18;86.28
25526;BME280;13424;48.424;11.258;2022-10-31T06:34:20;96064.16;;;13.03;87.02
25526;BME280;13424;48.424;11.258;2022-10-31T06:36:46;96060.59;;;13.31;86.26
25526;BME280;13424;48.424;11.258;2022-10-31T06:39:13;96064.47;;;13.40;85.07
25526;BME280;13424;48.424;11.258;2022-10-31T06:41:39;96067.50;;;13.66;84.50
25526;BME280;13424;48.424;11.258;2022-10-31T06:44:06;96057.22;;;13.41;85.83
25526;BME280;13424;48.424;11.258;2022-10-31T06:46:55;96057.50;;;13.39;86.53
25526;BME280;13424;48.424;11.258;2022-10-31T06:49:44;96064.84;;;13.49;86.09
25526;BME280;13424;48.424;11.258;2022-10-31T06:52:14;96060.38;;;13.55;85.68
25526;BME280;13424;48.424;11.258;2022-10-31T06:54:40;96066.91;;;13.81;84.71
25526;BME280;13424;48.424;11.258;2022-10-31T06:57:08;96069.22;;;13.55;85.97
25526;BME280;13424;48.424;11.258;2022-10-31T06:59:36;96066.09;;;13.25;87.18
25526;BME280;13424;48.424;11.258;2022-10-31T07:02:18;96072.75;;;13.05;87.89
25526;BME280;13424;48.424;11.258;2022-10-31T07:04:44;96066.56;;;13.05;87.90
25526;BME280;13424;48.424;11.258;2022-10-31T07:07:13;96072.50;;;12.90;88.62
25526;BME280;13424;48.424;11.258;2022-10-31T07:09:39;96067.28;;;13.17;87.70
25526;BME280;13424;48.424;11.258;2022-10-31T07:12:06;96072.47;;;13.57;86.43
25526;BME280;13424;48.424;11.258;2022-10-31T07:14:36;96069.56;;;13.59;87.00
25526;BME280;13424;48.424;11.258;2022-10-31T07:17:02;96077.50;;;13.71;87.30
25526;BME280;13424;48.424;11.258;2022-10-31T07:20:04;96075.75;;;13.59;87.99
25526;BME280;13424;48.424;11.258;2022-10-31T07:22:35;96078.34;;;13.54;88.90
25526;BME280;13424;48.424;11.258;2022-10-31T07:25:03;96076.97;;;13.52;89.80
25526;BME280;13424;48.424;11.258;2022-10-31T07:28:03;96071.75;;;14.06;87.57
25526;BME280;13424;48.424;11.258;2022-10-31T07:30:29;96075.88;;;14.35;86.19
25526;BME280;13424;48.424;11.258;2022-10-31T07:32:56;96076.63;;;14.52;85.89
25526;BME280;13424;48.424;11.258;2022-10-31T07:35:24;96077.44;;;14.53;85.81
25526;BME280;13424;48.424;11.258;2022-10-31T07:37:55;96071.66;;;14.66;85.39
25526;BME280;13424;48.424;11.258;2022-10-31T07:40:23;96070.81;;;14.39;86.57
25526;BME280;13424;48.424;11.258;2022-10-31T07:42:51;96068.19;;;14.66;85.33
25526;BME280;13424;48.424;11.258;2022-10-31T07:45:36;96076.19;;;14.39;86.49
25526;BME280;13424;48.424;11.258;2022-10-31T07:48:33;96068.19;;;14.66;85.12
25526;BME280;13424;48.424;11.258;2022-10-31T07:51:18;96075.03;;;14.78;85.29
25526;BME280;13424;48.424;11.258;2022-10-31T07:54:19;96067.31;;;14.87;84.53
25526;BME280;13424;48.424;11.258;2022-10-31T07:56:45;96070.00;;;14.87;84.81
25526;BME280;13424;48.424;11.258;2022-10-31T07:59:12;96066.16;;;14.78;85.87
25526;BME280;13424;48.424;11.258;2022-10-31T08:01:39;96064.88;;;14.86;85.75
25526;BME280;13424;48.424;11.258;2022-10-31T08:04:37;96066.59;;;14.97;85.82
25526;BME280;13424;48.424;11.258;2022-10-31T08:07:22;96075.88;;;15.16;84.31
25526;BME280;13424;48.424;11.258;2022-10-31T08:09:55;96068.59;;;15.49;83.27
25526;BME280;13424;48.424;11.258;2022-10-31T08:12:24;96062.53;;;15.31;83.96
25526;BME280;13424;48.424;11.258;2022-10-31T08:14:52;96066.78;;;15.22;85.14
25526;BME280;13424;48.424;11.258;2022-10-31T08:17:19;96058.03;;;15.37;84.43
25526;BME280;13424;48.424;11.258;2022-10-31T08:19:51;96058.28;;;15.35;85.00
25526;BME280;13424;48.424;11.258;2022-10-31T08:22:19;96061.34;;;15.49;84.39
25526;BME280;13424;48.424;11.258;2022-10-31T08:24:45;96061.50;;;15.32;85.30
25526;BME280;13424;48.424;11.258;2022-10-31T08:27:11;96059.47;;;15.13;86.01
25526;BME280;13424;48.424;11.258;2022-10-31T08:29:38;96056.97;;;15.38;85.42
25526;BME280;13424;48.424;11.258;2022-10-31T08:32:04;96054.00;;;15.40;86.10
25526;BME280;13424;48.424;11.258;2022-10-31T08:34:50;96054.97;;;15.23;87.34
25526;BME280;13424;48.424;11.258;2022-10-31T08:37:41;96049.09;;;15.26;86.65
25526;BME280;13424;48.424;11.258;2022-10-31T08:40:08;96049.13;;;15.69;85.95
25526;BME280;13424;48.424;11.258;2022-10-31T08:42:34;96051.13;;;15.88;85.09
25526;BME280;13424;48.424;11.258;2022-10-31T08:45:00;96047.97;;;16.17;84.36
25526;BME280;13424;48.424;11.258;2022-10-31T08:47:28;96044.72;;;16.05;85.20
25526;BME280;13424;48.424;11.258;2022-10-31T08:49:55;96041.19;;;15.99;85.54
25526;BME280;13424;48.424;11.258;2022-10-31T08:52:25;96042.00;;;16.00;85.82
25526;BME280;13424;48.424;11.258;2022-10-31T08:54:57;96034.19;;;16.03;85.68
25526;BME280;13424;48.424;11.258;2022-10-31T08:57:41;96033.22;;;16.25;85.45
25526;BME280;13424;48.424;11.258;2022-10-31T09:03:44;96025.47;;;16.59;84.23
25526;BME280;13424;48.424;11.258;2022-10-31T09:06:10;96015.28;;;16.61;84.97
25526;BME280;13424;48.424;11.258;2022-10-31T09:08:36;96018.00;;;17.12;83.80
25526;BME280;13424;48.424;11.258;2022-10-31T09:11:03;96016.66;;;17.24;82.76
25526;BME280;13424;48.424;11.258;2022-10-31T09:13:48;96019.59;;;17.48;82.23
25526;BME280;13424;48.424;11.258;2022-10-31T09:16:43;96021.22;;;17.39;82.76
25526;BME280;13424;48.424;11.258;2022-10-31T09:19:15;96013.00;;;17.90;80.54
25526;BME280;13424;48.424;11.258;2022-10-31T09:21:45;96018.97;;;17.82;81.03
25526;BME280;13424;48.424;11.258;2022-10-31T09:24:11;96018.41;;;17.95;81.15
25526;BME280;13424;48.424;11.258;2022-10-31T09:26:37;96017.91;;;17.68;82.44
25526;BME280;13424;48.424;11.258;2022-10-31T09:29:07;96015.38;;;18.07;80.98
25526;BME280;13424;48.424;11.258;2022-10-31T09:31:35;96012.59;;;17.27;85.71
25526;BME280;13424;48.424;11.258;2022-10-31T09:34:09;96020.41;;;18.24;81.47
25526;BME280;13424;48.424;11.258;2022-10-31T09:36:37;96014.41;;;18.42;81.38
25526;BME280;13424;48.424;11.258;2022-10-31T09:39:04;96009.59;;;18.34;80.05
25526;BME280;13424;48.424;11.258;2022-10-31T09:42:21;96009.84;;;18.82;79.64
25526;BME280;13424;48.424;11.258;2022-10-31T09:51:33;96007.00;;;19.31;78.54
25526;BME280;13424;48.424;11.258;2022-10-31T09:54:16;96010.16;;;19.09;78.01
25526;BME280;13424;48.424;11.258;2022-10-31T09:56:43;95998.53;;;18.30;84.05
25526;BME280;13424;48.424;11.258;2022-10-31T09:59:33;95998.41;;;19.24;79.47
25526;BME280;13424;48.424;11.258;2022-10-31T10:02:20;96010.06;;;19.48;78.55
25526;BME280;13424;48.424;11.258;2022-10-31T10:05:03;96000.34;;;19.47;78.06
25526;BME280;13424;48.424;11.258;2022-10-31T10:10:56;96004.06;;;19.57;79.57
25526;BME280;13424;48.424;11.258;2022-10-31T10:16:39;95993.41;;;19.65;78.97
25526;BME280;13424;48.424;11.258;2022-10-31T10:30:41;95974.06;;;19.24;80.40
25526;BME280;13424;48.424;11.258;2022-10-31T10:36:54;95981.69;;;19.99;78.14
25526;BME280;13424;48.424;11.258;2022-10-31T10:39:45;95981.19;;;20.16;77.66
25526;BME280;13424;48.424;11.258;2022-10-31T10:42:15;95968.91;;;20.23;77.09
25526;BME280;13424;48.424;11.258;2022-10-31T10:45:13;95970.63;;;19.95;77.70
25526;BME280;13424;48.424;11.258;2022-10-31T10:50:47;95960.56;;;20.39;76.46
25526;BME280;13424;48.424;11.258;2022-10-31T10:56:23;95953.63;;;20.51;75.80
25526;BME280;13424;48.424;11.258;2022-10-31T10:58:52;95947.38;;;20.88;75.06
25526;BME280;13424;48.424;11.258;2022-10-31T11:01:21;95949.34;;;20.83;74.83
25526;BME280;13424;48.424;11.258;2022-10-31T11:03:47;95946.72;;;20.78;74.79
25526;BME280;13424;48.424;11.258;2022-10-31T11:06:23;95947.41;;;20.70;74.78
25526;BME280;13424;48.424;11.258;2022-10-31T11:08:52;95943.03;;;20.87;75.14
25526;BME280;13424;48.424;11.258;2022-10-31T11:11:26;95936.34;;;20.66;74.63
25526;BME280;13424;48.424;11.258;2022-10-31T11:14:12;95937.28;;;20.75;74.21
25526;BME280;13424;48.424;11.258;2022-10-31T11:16:43;95931.00;;;20.61;75.36
25526;BME280;13424;48.424;11.258;2022-10-31T11:21:46;95926.53;;;20.51;76.76
25526;BME280;13424;48.424;11.258;2022-10-31T11:24:19;95927.03;;;20.72;74.92
25526;BME280;13424;48.424;11.258;2022-10-31T11:26:48;95919.81;;;20.81;73.81
25526;BME280;13424;48.424;11.258;2022-10-31T11:29:23;95926.28;;;20.85;74.57
25526;BME280;13424;48.424;11.258;2022-10-31T11:31:56;95914.50;;;20.01;76.60
25526;BME280;13424;48.424;11.258;2022-10-31T11:34:37;95921.03;;;20.00;77.89
25526;BME280;13424;48.424;11.258;2022-10-31T11:37:20;95926.72;;;20.74;75.68
25526;BME280;13424;48.424;11.258;2022-10-31T11:39:55;95919.28;;;20.98;75.30
25526;BME280;13424;48.424;11.258;2022-10-31T11:42:36;95918.38;;;21.03;74.71
25526;BME280;13424;48.424;11.258;2022-10-31T11:45:17;95909.03;;;20.95;74.48
25526;BME280;13424;48.424;11.258;2022-10-31T11:47:53;95907.94;;;20.96;74.03
25526;BME280;13424;48.424;11.258;2022-10-31T11:52:55;95903.47;;;20.16;76.53
25526;BME280;13424;48.424;11.258;2022-10-31T11:55:36;95901.72;;;20.63;76.18
25526;BME280;13424;48.424;11.258;2022-10-31T11:58:03;95894.75;;;20.89;76.01
25526;BME280;13424;48.424;11.258;2022-10-31T12:00:38;95895.63;;;20.33;78.39
25526;BME280;13424;48.424;11.258;2022-10-31T12:06:16;95893.53;;;21.28;73.57
25526;BME280;13424;48.424;11.258;2022-10-31T12:08:44;95889.66;;;21.02;73.62
25526;BME280;13424;48.424;11.258;2022-10-31T12:14:43;95897.81;;;19.94;78.85
25526;BME280;13424;48.424;11.258;2022-10-31T12:17:22;95886.59;;;19.82;79.53
25526;BME280;13424;48.424;11.258;2022-10-31T12:29:00;95892.41;;;18.35;82.28
25526;BME280;13424;48.424;11.258;2022-10-31T12:43:51;95864.44;;;19.37;80.46
25526;BME280;13424;48.424;11.258;2022-10-31T12:46:31;95861.28;;;19.30;80.83
25526;BME280;13424;48.424;11.258;2022-10-31T12:57:44;95834.28;;;20.43;75.37
25526;BME280;13424;48.424;11.258;2022-10-31T13:00:19;95840.25;;;20.07;78.63
25526;BME280;13424;48.424;11.258;2022-10-31T13:03:19;95833.28;;;20.20;76.55
25526;BME280;13424;48.424;11.258;2022-10-31T13:05:50;95832.78;;;20.18;77.39
25526;BME280;13424;48.424;11.258;2022-10-31T13:08:22;95825.66;;;20.73;76.07
25526;BME280;13424;48.424;11.258;2022-10-31T13:16:34;95814.00;;;19.46;78.25
25526;BME280;13424;48.424;11.258;2022-10-31T13:19:16;95806.31;;;20.28;76.20
25526;BME280;13424;48.424;11.258;2022-10-31T13:22:08;95817.88;;;19.40;80.12
25526;BME280;13424;48.424;11.258;2022-10-31T13:27:45;95797.97;;;19.73;77.61
25526;BME280;13424;48.424;11.258;2022-10-31T13:30:44;95803.91;;;18.85;80.84
25526;BME280;13424;48.424;11.258;2022-10-31T13:33:47;95799.84;;;19.54;77.43
25526;BME280;13424;48.424;11.258;2022-10-31T13:36:36;95801.34;;;18.06;83.26
25526;BME280;13424;48.424;11.258;2022-10-31T13:39:45;95800.34;;;18.31;81.58
25526;BME280;13424;48.424;11.258;2022-10-31T13:44:52;95792.56;;;17.46;85.74
25526;BME280;13424;48.424;11.258;2022-10-31T13:47:29;95780.84;;;17.61;84.68
25526;BME280;13424;48.424;11.258;2022-10-31T13:52:40;95781.44;;;17.03;87.78
25526;BME280;13424;48.424;11.258;2022-10-31T13:55:41;95779.88;;;17.47;85.76
25526;BME280;13424;48.424;11.258;2022-10-31T13:58:22;95793.66;;;17.90;84.09
25526;BME280;13424;48.424;11.258;2022-10-31T14:01:19;95793.00;;;18.37;81.78
25526;BME280;13424;48.424;11.258;2022-10-31T14:03:56;95786.03;;;18.60;80.78
25526;BME280;13424;48.424;11.258;2022-10-31T14:06:23;95782.56;;;18.54;80.40
25526;BME280;13424;48.424;11.258;2022-10-31T14:08:59;95781.56;;;18.16;82.39
25526;BME280;13424;48.424;11.258;2022-10-31T14:11:27;95768.22;;;18.59;80.95
25526;BME280;13424;48.424;11.258;2022-10-31T14:13:55;95762.88;;;18.54;80.47
25526;BME280;13424;48.424;11.258;2022-10-31T14:16:30;95762.22;;;18.38;81.11
25526;BME280;13424;48.424;11.258;2022-10-31T14:19:02;95751.69;;;17.68;84.77
25526;BME280;13424;48.424;11.258;2022-10-31T14:21:42;95760.88;;;18.06;82.99
25526;BME280;13424;48.424;11.258;2022-10-31T14:29:49;95763.63;;;17.62;83.88
25526;BME280;13424;48.424;11.258;2022-10-31T14:32:24;95760.72;;;18.27;81.86
25526;BME280;13424;48.424;11.258;2022-10-31T14:34:58;95763.03;;;18.62;79.96
25526;BME280;13424;48.424;11.258;2022-10-31T14:40:26;95752.09;;;17.91;82.51
25526;BME280;13424;48.424;11.258;2022-10-31T14:46:07;95752.91;;;17.91;82.67
25526;BME280;13424;48.424;11.258;2022-10-31T14:51:22;95741.47;;;18.04;81.96
25526;BME280;13424;48.424;11.258;2022-10-31T14:53:50;95741.56;;;17.94;82.26
25526;BME280;13424;48.424;11.258;2022-10-31T14:56:37;95733.81;;;17.82;82.76
25526;BME280;13424;48.424;11.258;2022-10-31T14:59:11;95731.50;;;17.71;83.36
25526;BME280;13424;48.424;11.258;2022-10-31T15:01:39;95726.59;;;17.78;83.37
25526;BME280;13424;48.424;11.258;2022-10-31T15:04:27;95728.38;;;18.17;82.21
25526;BME280;13424;48.424;11.258;2022-10-31T15:07:22;95728.69;;;18.15;82.28
25526;BME280;13424;48.424;11.258;2022-10-31T15:10:00;95728.59;;;18.25;81.03
25526;BME280;13424;48.424;11.258;2022-10-31T15:12:29;95721.59;;;17.95;82.48
25526;BME280;13424;48.424;11.258;2022-10-31T15:14:55;95727.19;;;17.65;84.70
25526;BME280;13424;48.424;11.258;2022-10-31T15:17:22;95725.63;;;17.53;84.66
25526;BME280;13424;48.424;11.258;2022-10-31T15:19:50;95720.63;;;17.37;85.49
25526;BME280;13424;48.424;11.258;2022-10-31T15:22:20;95720.13;;;17.74;83.36
25526;BME280;13424;48.424;11.258;2022-10-31T15:24:48;95718.50;;;17.28;85.19
25526;BME280;13424;48.424;11.258;2022-10-31T15:27:16;95718.13;;;17.45;84.75
25526;BME280;13424;48.424;11.258;2022-10-31T15:29:56;95710.81;;;17.90;82.46
25526;BME280;13424;48.424;11.258;2022-10-31T15:32:29;95713.41;;;17.27;85.28
25526;BME280;13424;48.424;11.258;2022-10-31T15:34:55;95714.72;;;17.69;83.16
25526;BME280;13424;48.424;11.258;2022-10-31T15:37:24;95714.84;;;17.53;83.43
25526;BME280;13424;48.424;11.258;2022-10-31T15:39:51;95705.53;;;16.86;86.79